sensor_id;sensor_type;location;lat;lon;timestamp;P1;durP1;ratioP1;P2;durP2;ratioP2
9809;SDS011;4944;52.514;13.192;2023-07-30T00:00:10;4.33;;;3.30;;
9809;SDS011;4944;52.514;13.192;2023-07-30T00:02:37;3.30;;;3.00;;
9809;SDS011;4944;52.514;13.192;2023-07-30T00:05:04;2.90;;;2.70;;
9809;SDS011;4944;52.514;13.192;2023-07-30T00:07:33;3.07;;;2.87;;
9809;SDS011;4944;52.514;13.192;2023-07-30T00:10:00;3.30;;;3.10;;
9809;SDS011;4944;52.514;13.192;2023-07-30T00:12:27;3.57;;;3.20;;
9809;SDS011;4944;52.514;13.192;2023-07-30T00:14:53;4.53;;;3.30;;
9809;SDS011;4944;52.514;13.192;2023-07-30T00:17:20;3.27;;;2.97;;
9809;SDS011;4944;52.514;13.192;2023-07-30T00:19:47;5.03;;;3.20;;
9809;SDS011;4944;52.514;13.192;2023-07-30T00:22:14;3.43;;;2.80;;
9809;SDS011;4944;52.514;13.192;2023-07-30T00:24:42;6.83;;;3.67;;
9809;SDS011;4944;52.514;13.192;2023-07-30T00:27:09;3.63;;;2.90;;
9809;SDS011;4944;52.514;13.192;2023-07-30T00:29:36;4.30;;;3.13;;
9809;SDS011;4944;52.514;13.192;2023-07-30T00:32:03;3.50;;;3.20;;
9809;SDS011;4944;52.514;13.192;2023-07-30T00:34:30;3.00;;;2.80;;
9809;SDS011;4944;52.514;13.192;2023-07-30T00:36:57;3.37;;;3.17;;
9809;SDS011;4944;52.514;13.192;2023-07-30T00:39:24;10.07;;;3.23;;
9809;SDS011;4944;52.514;13.192;2023-07-30T00:41:52;3.63;;;3.03;;
9809;SDS011;4944;52.514;13.192;2023-07-30T00:44:19;3.23;;;3.00;;
9809;SDS011;4944;52.514;13.192;2023-07-30T00:46:46;3.30;;;3.00;;
9809;SDS011;4944;52.514;13.192;2023-07-30T00:49:13;3.20;;;3.00;;
9809;SDS011;4944;52.514;13.192;2023-07-30T00:51:40;2.97;;;2.77;;
9809;SDS011;4944;52.514;13.192;2023-07-30T00:54:08;3.03;;;2.73;;
9809;SDS011;4944;52.514;13.192;2023-07-30T00:56:35;2.67;;;2.57;;
9809;SDS011;4944;52.514;13.192;2023-07-30T00:59:03;3.40;;;3.20;;
9809;SDS011;4944;52.514;13.192;2023-07-30T01:01:30;3.13;;;2.90;;
9809;SDS011;4944;52.514;13.192;2023-07-30T01:04:02;3.00;;;2.90;;
9809;SDS011;4944;52.514;13.192;2023-07-30T01:06:29;3.23;;;2.97;;
9809;SDS011;4944;52.514;13.192;2023-07-30T01:08:56;3.30;;;3.00;;
9809;SDS011;4944;52.514;13.192;2023-07-30T01:11:23;2.90;;;2.80;;
9809;SDS011;4944;52.514;13.192;2023-07-30T01:13:50;3.17;;;2.90;;
9809;SDS011;4944;52.514;13.192;2023-07-30T01:16:19;2.83;;;2.70;;
9809;SDS011;4944;52.514;13.192;2023-07-30T01:18:46;3.20;;;2.90;;
9809;SDS011;4944;52.514;13.192;2023-07-30T01:21:14;3.30;;;3.10;;
9809;SDS011;4944;52.514;13.192;2023-07-30T01:23:41;3.07;;;2.87;;
9809;SDS011;4944;52.514;13.192;2023-07-30T01:26:09;4.77;;;3.10;;
9809;SDS011;4944;52.514;13.192;2023-07-30T01:28:39;2.73;;;2.50;;
9809;SDS011;4944;52.514;13.192;2023-07-30T01:31:09;4.80;;;3.00;;
9809;SDS011;4944;52.514;13.192;2023-07-30T01:33:40;3.70;;;2.73;;
9809;SDS011;4944;52.514;13.192;2023-07-30T01:36:08;3.03;;;2.83;;
9809;SDS011;4944;52.514;13.192;2023-07-30T01:38:42;2.80;;;2.60;;
9809;SDS011;4944;52.514;13.192;2023-07-30T01:41:09;3.30;;;3.10;;
9809;SDS011;4944;52.514;13.192;2023-07-30T01:43:36;4.60;;;3.23;;
9809;SDS011;4944;52.514;13.192;2023-07-30T01:46:03;3.50;;;3.20;;
9809;SDS011;4944;52.514;13.192;2023-07-30T01:48:30;2.90;;;2.70;;
9809;SDS011;4944;52.514;13.192;2023-07-30T01:50:57;3.10;;;2.80;;
9809;SDS011;4944;52.514;13.192;2023-07-30T01:53:24;2.77;;;2.57;;
9809;SDS011;4944;52.514;13.192;2023-07-30T01:55:52;4.10;;;2.60;;
9809;SDS011;4944;52.514;13.192;2023-07-30T01:58:19;2.90;;;2.70;;
9809;SDS011;4944;52.514;13.192;2023-07-30T02:00:46;3.20;;;3.00;;
9809;SDS011;4944;52.514;13.192;2023-07-30T02:03:13;2.93;;;2.77;;
9809;SDS011;4944;52.514;13.192;2023-07-30T02:05:39;3.10;;;2.90;;
9809;SDS011;4944;52.514;13.192;2023-07-30T02:08:06;2.53;;;2.33;;
9809;SDS011;4944;52.514;13.192;2023-07-30T02:10:33;3.03;;;2.90;;
9809;SDS011;4944;52.514;13.192;2023-07-30T02:13:01;2.93;;;2.63;;
9809;SDS011;4944;52.514;13.192;2023-07-30T02:15:28;2.80;;;2.60;;
9809;SDS011;4944;52.514;13.192;2023-07-30T02:17:55;2.80;;;2.67;;
9809;SDS011;4944;52.514;13.192;2023-07-30T02:20:22;2.93;;;2.73;;
9809;SDS011;4944;52.514;13.192;2023-07-30T02:22:49;3.37;;;3.00;;
9809;SDS011;4944;52.514;13.192;2023-07-30T02:25:16;3.20;;;2.90;;
9809;SDS011;4944;52.514;13.192;2023-07-30T02:27:44;2.73;;;2.60;;
9809;SDS011;4944;52.514;13.192;2023-07-30T02:30:12;2.60;;;2.50;;
9809;SDS011;4944;52.514;13.192;2023-07-30T02:32:39;4.37;;;2.63;;
9809;SDS011;4944;52.514;13.192;2023-07-30T02:35:07;3.97;;;2.70;;
9809;SDS011;4944;52.514;13.192;2023-07-30T02:37:34;3.17;;;2.93;;
9809;SDS011;4944;52.514;13.192;2023-07-30T02:40:01;3.50;;;3.20;;
9809;SDS011;4944;52.514;13.192;2023-07-30T02:42:29;3.77;;;2.60;;
9809;SDS011;4944;52.514;13.192;2023-07-30T02:44:56;2.80;;;2.60;;
9809;SDS011;4944;52.514;13.192;2023-07-30T02:47:25;2.83;;;2.73;;
9809;SDS011;4944;52.514;13.192;2023-07-30T02:49:51;3.30;;;3.00;;
9809;SDS011;4944;52.514;13.192;2023-07-30T02:52:19;3.10;;;2.80;;
9809;SDS011;4944;52.514;13.192;2023-07-30T02:54:46;3.93;;;3.00;;
9809;SDS011;4944;52.514;13.192;2023-07-30T02:57:13;3.93;;;2.83;;
9809;SDS011;4944;52.514;13.192;2023-07-30T02:59:40;3.07;;;2.87;;
9809;SDS011;4944;52.514;13.192;2023-07-30T03:02:07;2.80;;;2.70;;
9809;SDS011;4944;52.514;13.192;2023-07-30T03:04:35;3.33;;;3.00;;
9809;SDS011;4944;52.514;13.192;2023-07-30T03:07:02;3.07;;;2.87;;
9809;SDS011;4944;52.514;13.192;2023-07-30T03:09:29;3.73;;;3.10;;
9809;SDS011;4944;52.514;13.192;2023-07-30T03:11:56;3.13;;;2.77;;
9809;SDS011;4944;52.514;13.192;2023-07-30T03:14:23;3.33;;;3.17;;
9809;SDS011;4944;52.514;13.192;2023-07-30T03:16:50;3.23;;;3.00;;
9809;SDS011;4944;52.514;13.192;2023-07-30T03:19:17;3.23;;;3.00;;
9809;SDS011;4944;52.514;13.192;2023-07-30T03:21:45;3.23;;;2.93;;
9809;SDS011;4944;52.514;13.192;2023-07-30T03:24:12;3.13;;;2.93;;
9809;SDS011;4944;52.514;13.192;2023-07-30T03:26:39;3.10;;;2.90;;
9809;SDS011;4944;52.514;13.192;2023-07-30T03:29:06;3.40;;;3.13;;
9809;SDS011;4944;52.514;13.192;2023-07-30T03:31:32;4.03;;;3.47;;
9809;SDS011;4944;52.514;13.192;2023-07-30T03:33:59;3.27;;;2.90;;
9809;SDS011;4944;52.514;13.192;2023-07-30T03:36:26;2.70;;;2.60;;
9809;SDS011;4944;52.514;13.192;2023-07-30T03:38:54;3.50;;;3.30;;
9809;SDS011;4944;52.514;13.192;2023-07-30T03:41:22;3.37;;;3.07;;
9809;SDS011;4944;52.514;13.192;2023-07-30T03:43:48;2.90;;;2.70;;
9809;SDS011;4944;52.514;13.192;2023-07-30T03:46:16;3.40;;;3.20;;
9809;SDS011;4944;52.514;13.192;2023-07-30T03:48:43;3.03;;;2.80;;
9809;SDS011;4944;52.514;13.192;2023-07-30T03:51:09;3.33;;;3.13;;
9809;SDS011;4944;52.514;13.192;2023-07-30T03:53:37;3.30;;;3.20;;
9809;SDS011;4944;52.514;13.192;2023-07-30T03:56:09;3.23;;;2.93;;
9809;SDS011;4944;52.514;13.192;2023-07-30T03:58:36;3.43;;;3.20;;
9809;SDS011;4944;52.514;13.192;2023-07-30T04:01:02;3.23;;;2.90;;
9809;SDS011;4944;52.514;13.192;2023-07-30T04:03:29;3.93;;;3.50;;
9809;SDS011;4944;52.514;13.192;2023-07-30T04:05:56;3.40;;;3.20;;
9809;SDS011;4944;52.514;13.192;2023-07-30T04:08:23;3.70;;;3.40;;
9809;SDS011;4944;52.514;13.192;2023-07-30T04:10:50;3.30;;;3.10;;
9809;SDS011;4944;52.514;13.192;2023-07-30T04:13:18;3.47;;;3.27;;
9809;SDS011;4944;52.514;13.192;2023-07-30T04:15:46;3.83;;;3.53;;
9809;SDS011;4944;52.514;13.192;2023-07-30T04:18:13;3.87;;;3.50;;
9809;SDS011;4944;52.514;13.192;2023-07-30T04:20:40;3.80;;;3.60;;
9809;SDS011;4944;52.514;13.192;2023-07-30T04:23:07;3.70;;;3.50;;
9809;SDS011;4944;52.514;13.192;2023-07-30T04:25:34;4.10;;;3.90;;
9809;SDS011;4944;52.514;13.192;2023-07-30T04:28:01;4.17;;;3.87;;
9809;SDS011;4944;52.514;13.192;2023-07-30T04:30:29;4.27;;;3.90;;
9809;SDS011;4944;52.514;13.192;2023-07-30T04:32:56;3.77;;;3.57;;
9809;SDS011;4944;52.514;13.192;2023-07-30T04:35:23;4.33;;;4.00;;
9809;SDS011;4944;52.514;13.192;2023-07-30T04:37:50;4.20;;;4.00;;
9809;SDS011;4944;52.514;13.192;2023-07-30T04:40:16;4.77;;;4.50;;
9809;SDS011;4944;52.514;13.192;2023-07-30T04:42:43;4.30;;;4.00;;
9809;SDS011;4944;52.514;13.192;2023-07-30T04:45:11;4.60;;;4.30;;
9809;SDS011;4944;52.514;13.192;2023-07-30T04:47:39;4.50;;;4.10;;
9809;SDS011;4944;52.514;13.192;2023-07-30T04:50:06;4.80;;;4.40;;
9809;SDS011;4944;52.514;13.192;2023-07-30T04:52:33;4.57;;;4.27;;
9809;SDS011;4944;52.514;13.192;2023-07-30T04:55:00;4.00;;;3.80;;
9809;SDS011;4944;52.514;13.192;2023-07-30T04:57:27;5.63;;;4.60;;
9809;SDS011;4944;52.514;13.192;2023-07-30T04:59:54;5.43;;;4.63;;
9809;SDS011;4944;52.514;13.192;2023-07-30T05:02:21;4.50;;;4.10;;
9809;SDS011;4944;52.514;13.192;2023-07-30T05:04:49;4.20;;;3.77;;
9809;SDS011;4944;52.514;13.192;2023-07-30T05:07:16;4.17;;;3.97;;
9809;SDS011;4944;52.514;13.192;2023-07-30T05:09:43;3.70;;;3.50;;
9809;SDS011;4944;52.514;13.192;2023-07-30T05:12:09;4.60;;;3.43;;
9809;SDS011;4944;52.514;13.192;2023-07-30T05:14:36;3.23;;;3.10;;
9809;SDS011;4944;52.514;13.192;2023-07-30T05:17:03;3.50;;;3.30;;
9809;SDS011;4944;52.514;13.192;2023-07-30T05:19:31;3.60;;;3.30;;
9809;SDS011;4944;52.514;13.192;2023-07-30T05:21:59;3.30;;;3.20;;
9809;SDS011;4944;52.514;13.192;2023-07-30T05:24:27;3.53;;;3.23;;
9809;SDS011;4944;52.514;13.192;2023-07-30T05:26:54;3.50;;;3.20;;
9809;SDS011;4944;52.514;13.192;2023-07-30T05:29:20;3.50;;;3.30;;
9809;SDS011;4944;52.514;13.192;2023-07-30T05:31:47;3.93;;;3.23;;
9809;SDS011;4944;52.514;13.192;2023-07-30T05:34:14;3.80;;;2.90;;
9809;SDS011;4944;52.514;13.192;2023-07-30T05:36:41;3.00;;;2.80;;
9809;SDS011;4944;52.514;13.192;2023-07-30T05:39:09;4.33;;;3.00;;
9809;SDS011;4944;52.514;13.192;2023-07-30T05:41:36;3.20;;;3.00;;
9809;SDS011;4944;52.514;13.192;2023-07-30T05:44:03;3.17;;;2.97;;
9809;SDS011;4944;52.514;13.192;2023-07-30T05:46:30;3.20;;;3.00;;
9809;SDS011;4944;52.514;13.192;2023-07-30T05:48:57;3.50;;;3.20;;
9809;SDS011;4944;52.514;13.192;2023-07-30T05:51:24;3.23;;;3.10;;
9809;SDS011;4944;52.514;13.192;2023-07-30T05:53:51;3.67;;;3.13;;
9809;SDS011;4944;52.514;13.192;2023-07-30T05:56:19;3.03;;;2.93;;
9809;SDS011;4944;52.514;13.192;2023-07-30T05:58:46;6.37;;;3.13;;
9809;SDS011;4944;52.514;13.192;2023-07-30T06:01:12;3.20;;;3.00;;
9809;SDS011;4944;52.514;13.192;2023-07-30T06:03:39;3.00;;;2.90;;
9809;SDS011;4944;52.514;13.192;2023-07-30T06:06:06;3.47;;;3.17;;
9809;SDS011;4944;52.514;13.192;2023-07-30T06:08:33;3.40;;;3.13;;
9809;SDS011;4944;52.514;13.192;2023-07-30T06:11:00;3.23;;;2.93;;
9809;SDS011;4944;52.514;13.192;2023-07-30T06:13:29;3.30;;;3.10;;
9809;SDS011;4944;52.514;13.192;2023-07-30T06:15:56;3.47;;;3.17;;
9809;SDS011;4944;52.514;13.192;2023-07-30T06:18:23;3.87;;;3.27;;
9809;SDS011;4944;52.514;13.192;2023-07-30T06:20:50;3.53;;;3.20;;
9809;SDS011;4944;52.514;13.192;2023-07-30T06:23:17;3.07;;;2.97;;
9809;SDS011;4944;52.514;13.192;2023-07-30T06:25:44;2.87;;;2.67;;
9809;SDS011;4944;52.514;13.192;2023-07-30T06:28:10;3.07;;;2.87;;
9809;SDS011;4944;52.514;13.192;2023-07-30T06:30:39;4.20;;;3.00;;
9809;SDS011;4944;52.514;13.192;2023-07-30T06:33:06;2.73;;;2.63;;
9809;SDS011;4944;52.514;13.192;2023-07-30T06:35:33;3.47;;;3.27;;
9809;SDS011;4944;52.514;13.192;2023-07-30T06:37:59;3.40;;;2.73;;
9809;SDS011;4944;52.514;13.192;2023-07-30T06:40:26;4.00;;;2.90;;
9809;SDS011;4944;52.514;13.192;2023-07-30T06:42:53;2.90;;;2.67;;
9809;SDS011;4944;52.514;13.192;2023-07-30T06:45:20;2.90;;;2.70;;
9809;SDS011;4944;52.514;13.192;2023-07-30T06:47:48;3.03;;;2.67;;
9809;SDS011;4944;52.514;13.192;2023-07-30T06:50:15;5.53;;;2.80;;
9809;SDS011;4944;52.514;13.192;2023-07-30T06:52:42;3.30;;;3.00;;
9809;SDS011;4944;52.514;13.192;2023-07-30T06:55:09;2.90;;;2.70;;
9809;SDS011;4944;52.514;13.192;2023-07-30T06:57:36;2.90;;;2.70;;
9809;SDS011;4944;52.514;13.192;2023-07-30T07:00:03;3.83;;;2.90;;
9809;SDS011;4944;52.514;13.192;2023-07-30T07:02:31;3.40;;;3.20;;
9809;SDS011;4944;52.514;13.192;2023-07-30T07:04:59;3.13;;;2.93;;
9809;SDS011;4944;52.514;13.192;2023-07-30T07:07:26;4.60;;;3.10;;
9809;SDS011;4944;52.514;13.192;2023-07-30T07:09:53;7.63;;;3.33;;
9809;SDS011;4944;52.514;13.192;2023-07-30T07:12:20;3.63;;;3.33;;
9809;SDS011;4944;52.514;13.192;2023-07-30T07:14:47;3.60;;;3.23;;
9809;SDS011;4944;52.514;13.192;2023-07-30T07:17:13;3.93;;;3.50;;
9809;SDS011;4944;52.514;13.192;2023-07-30T07:19:40;3.30;;;3.00;;
9809;SDS011;4944;52.514;13.192;2023-07-30T07:22:08;4.13;;;3.10;;
9809;SDS011;4944;52.514;13.192;2023-07-30T07:24:35;3.63;;;3.43;;
9809;SDS011;4944;52.514;13.192;2023-07-30T07:27:02;4.37;;;3.23;;
9809;SDS011;4944;52.514;13.192;2023-07-30T07:29:30;3.50;;;3.30;;
9809;SDS011;4944;52.514;13.192;2023-07-30T07:31:57;3.67;;;3.37;;
9809;SDS011;4944;52.514;13.192;2023-07-30T07:34:23;5.47;;;3.60;;
9809;SDS011;4944;52.514;13.192;2023-07-30T07:36:50;5.67;;;4.07;;
9809;SDS011;4944;52.514;13.192;2023-07-30T07:39:18;4.67;;;3.50;;
9809;SDS011;4944;52.514;13.192;2023-07-30T07:41:46;3.40;;;3.20;;
9809;SDS011;4944;52.514;13.192;2023-07-30T07:44:12;3.47;;;3.23;;
9809;SDS011;4944;52.514;13.192;2023-07-30T07:46:40;3.03;;;2.83;;
9809;SDS011;4944;52.514;13.192;2023-07-30T07:49:07;3.70;;;3.40;;
9809;SDS011;4944;52.514;13.192;2023-07-30T07:51:34;5.37;;;3.30;;
9809;SDS011;4944;52.514;13.192;2023-07-30T07:54:01;3.17;;;2.97;;
9809;SDS011;4944;52.514;13.192;2023-07-30T07:56:30;3.27;;;3.00;;
9809;SDS011;4944;52.514;13.192;2023-07-30T07:58:57;3.67;;;3.00;;
9809;SDS011;4944;52.514;13.192;2023-07-30T08:01:24;3.67;;;3.03;;
9809;SDS011;4944;52.514;13.192;2023-07-30T08:03:51;3.23;;;2.97;;
9809;SDS011;4944;52.514;13.192;2023-07-30T08:06:18;3.30;;;2.97;;
9809;SDS011;4944;52.514;13.192;2023-07-30T08:08:45;2.67;;;2.53;;
9809;SDS011;4944;52.514;13.192;2023-07-30T08:11:12;2.60;;;2.50;;
9809;SDS011;4944;52.514;13.192;2023-07-30T08:13:40;3.03;;;2.60;;
9809;SDS011;4944;52.514;13.192;2023-07-30T08:16:07;3.03;;;2.73;;
9809;SDS011;4944;52.514;13.192;2023-07-30T08:18:34;3.40;;;2.70;;
9809;SDS011;4944;52.514;13.192;2023-07-30T08:21:00;3.67;;;3.37;;
9809;SDS011;4944;52.514;13.192;2023-07-30T08:23:27;5.53;;;3.30;;
9809;SDS011;4944;52.514;13.192;2023-07-30T08:25:54;3.87;;;2.77;;
9809;SDS011;4944;52.514;13.192;2023-07-30T08:28:21;2.63;;;2.40;;
9809;SDS011;4944;52.514;13.192;2023-07-30T08:30:49;2.93;;;2.20;;
9809;SDS011;4944;52.514;13.192;2023-07-30T08:33:16;5.60;;;2.30;;
9809;SDS011;4944;52.514;13.192;2023-07-30T08:35:43;2.57;;;2.27;;
9809;SDS011;4944;52.514;13.192;2023-07-30T08:38:10;1.90;;;1.80;;
9809;SDS011;4944;52.514;13.192;2023-07-30T08:40:37;2.30;;;2.10;;
9809;SDS011;4944;52.514;13.192;2023-07-30T08:43:04;2.83;;;2.53;;
9809;SDS011;4944;52.514;13.192;2023-07-30T08:45:31;2.50;;;2.40;;
9809;SDS011;4944;52.514;13.192;2023-07-30T08:47:59;2.37;;;1.97;;
9809;SDS011;4944;52.514;13.192;2023-07-30T08:50:26;2.47;;;2.27;;
9809;SDS011;4944;52.514;13.192;2023-07-30T08:52:54;2.87;;;2.20;;
9809;SDS011;4944;52.514;13.192;2023-07-30T08:55:23;6.43;;;2.90;;
9809;SDS011;4944;52.514;13.192;2023-07-30T08:57:52;4.93;;;2.30;;
9809;SDS011;4944;52.514;13.192;2023-07-30T09:00:19;3.10;;;2.30;;
9809;SDS011;4944;52.514;13.192;2023-07-30T09:02:51;2.90;;;2.53;;
9809;SDS011;4944;52.514;13.192;2023-07-30T09:05:22;2.50;;;2.20;;
9809;SDS011;4944;52.514;13.192;2023-07-30T09:07:49;2.50;;;2.30;;
9809;SDS011;4944;52.514;13.192;2023-07-30T09:10:16;3.47;;;2.33;;
9809;SDS011;4944;52.514;13.192;2023-07-30T09:12:43;3.63;;;2.10;;
9809;SDS011;4944;52.514;13.192;2023-07-30T09:15:10;2.90;;;2.30;;
9809;SDS011;4944;52.514;13.192;2023-07-30T09:17:37;4.30;;;2.20;;
9809;SDS011;4944;52.514;13.192;2023-07-30T09:20:04;2.83;;;2.10;;
9809;SDS011;4944;52.514;13.192;2023-07-30T09:22:34;2.40;;;2.20;;
9809;SDS011;4944;52.514;13.192;2023-07-30T09:25:05;3.20;;;2.43;;
9809;SDS011;4944;52.514;13.192;2023-07-30T09:27:33;2.87;;;2.20;;
9809;SDS011;4944;52.514;13.192;2023-07-30T09:30:00;2.13;;;2.00;;
9809;SDS011;4944;52.514;13.192;2023-07-30T09:32:30;4.40;;;2.57;;
9809;SDS011;4944;52.514;13.192;2023-07-30T09:35:03;3.20;;;2.13;;
9809;SDS011;4944;52.514;13.192;2023-07-30T09:37:31;4.20;;;2.27;;
9809;SDS011;4944;52.514;13.192;2023-07-30T09:40:02;4.27;;;2.40;;
9809;SDS011;4944;52.514;13.192;2023-07-30T09:42:30;2.10;;;2.00;;
9809;SDS011;4944;52.514;13.192;2023-07-30T09:44:59;2.33;;;1.97;;
9809;SDS011;4944;52.514;13.192;2023-07-30T09:47:26;2.60;;;2.07;;
9809;SDS011;4944;52.514;13.192;2023-07-30T09:49:53;2.30;;;2.00;;
9809;SDS011;4944;52.514;13.192;2023-07-30T09:52:20;2.10;;;1.90;;
9809;SDS011;4944;52.514;13.192;2023-07-30T09:54:49;3.40;;;2.10;;
9809;SDS011;4944;52.514;13.192;2023-07-30T09:57:18;2.07;;;1.87;;
9809;SDS011;4944;52.514;13.192;2023-07-30T09:59:45;2.13;;;1.90;;
9809;SDS011;4944;52.514;13.192;2023-07-30T10:02:12;2.93;;;2.10;;
9809;SDS011;4944;52.514;13.192;2023-07-30T10:04:41;4.83;;;1.93;;
9809;SDS011;4944;52.514;13.192;2023-07-30T10:07:10;4.07;;;3.63;;
9809;SDS011;4944;52.514;13.192;2023-07-30T10:09:45;6.55;;;2.42;;
9809;SDS011;4944;52.514;13.192;2023-07-30T10:12:16;2.20;;;2.00;;
9809;SDS011;4944;52.514;13.192;2023-07-30T10:14:46;3.58;;;2.08;;
9809;SDS011;4944;52.514;13.192;2023-07-30T10:17:13;2.20;;;2.10;;
9809;SDS011;4944;52.514;13.192;2023-07-30T10:19:43;3.13;;;2.23;;
9809;SDS011;4944;52.514;13.192;2023-07-30T10:22:20;2.60;;;2.40;;
9809;SDS011;4944;52.514;13.192;2023-07-30T10:24:55;2.97;;;1.92;;
9809;SDS011;4944;52.514;13.192;2023-07-30T10:27:25;5.60;;;2.05;;
9809;SDS011;4944;52.514;13.192;2023-07-30T10:30:07;4.73;;;2.73;;
9809;SDS011;4944;52.514;13.192;2023-07-30T10:32:39;2.65;;;2.45;;
9809;SDS011;4944;52.514;13.192;2023-07-30T10:35:06;3.17;;;1.98;;
9809;SDS011;4944;52.514;13.192;2023-07-30T10:37:34;3.70;;;2.30;;
9809;SDS011;4944;52.514;13.192;2023-07-30T10:40:01;4.87;;;2.00;;
9809;SDS011;4944;52.514;13.192;2023-07-30T10:42:44;3.20;;;2.60;;
9809;SDS011;4944;52.514;13.192;2023-07-30T10:45:11;3.03;;;2.03;;
9809;SDS011;4944;52.514;13.192;2023-07-30T10:47:40;2.40;;;2.20;;
9809;SDS011;4944;52.514;13.192;2023-07-30T10:50:07;3.13;;;2.10;;
9809;SDS011;4944;52.514;13.192;2023-07-30T10:52:36;2.10;;;1.87;;
9809;SDS011;4944;52.514;13.192;2023-07-30T10:55:03;2.45;;;1.85;;
9809;SDS011;4944;52.514;13.192;2023-07-30T10:57:31;3.42;;;2.10;;
9809;SDS011;4944;52.514;13.192;2023-07-30T11:00:00;4.65;;;2.63;;
9809;SDS011;4944;52.514;13.192;2023-07-30T11:02:27;2.85;;;2.03;;
9809;SDS011;4944;52.514;13.192;2023-07-30T11:04:55;3.88;;;2.15;;
9809;SDS011;4944;52.514;13.192;2023-07-30T11:07:22;4.65;;;2.17;;
9809;SDS011;4944;52.514;13.192;2023-07-30T11:09:58;5.28;;;2.35;;
9809;SDS011;4944;52.514;13.192;2023-07-30T11:12:26;3.95;;;2.20;;
9809;SDS011;4944;52.514;13.192;2023-07-30T11:15:01;3.83;;;2.13;;
9809;SDS011;4944;52.514;13.192;2023-07-30T11:17:28;4.20;;;2.13;;
9809;SDS011;4944;52.514;13.192;2023-07-30T11:19:55;2.67;;;2.00;;
9809;SDS011;4944;52.514;13.192;2023-07-30T11:22:28;5.57;;;2.22;;
9809;SDS011;4944;52.514;13.192;2023-07-30T11:24:56;4.95;;;3.40;;
9809;SDS011;4944;52.514;13.192;2023-07-30T11:27:23;2.53;;;1.77;;
9809;SDS011;4944;52.514;13.192;2023-07-30T11:29:56;2.75;;;1.70;;
9809;SDS011;4944;52.514;13.192;2023-07-30T11:32:26;2.17;;;2.03;;
9809;SDS011;4944;52.514;13.192;2023-07-30T11:34:55;1.88;;;1.77;;
9809;SDS011;4944;52.514;13.192;2023-07-30T11:37:22;4.53;;;1.95;;
9809;SDS011;4944;52.514;13.192;2023-07-30T11:39:49;3.10;;;2.10;;
9809;SDS011;4944;52.514;13.192;2023-07-30T11:42:17;3.03;;;1.92;;
9809;SDS011;4944;52.514;13.192;2023-07-30T11:44:44;2.63;;;2.03;;
9809;SDS011;4944;52.514;13.192;2023-07-30T11:47:12;2.75;;;1.90;;
9809;SDS011;4944;52.514;13.192;2023-07-30T11:49:55;4.63;;;2.80;;
9809;SDS011;4944;52.514;13.192;2023-07-30T11:52:22;4.00;;;2.00;;
9809;SDS011;4944;52.514;13.192;2023-07-30T11:54:59;3.28;;;1.77;;
9809;SDS011;4944;52.514;13.192;2023-07-30T11:57:32;2.65;;;1.90;;
9809;SDS011;4944;52.514;13.192;2023-07-30T12:00:00;2.35;;;2.25;;
9809;SDS011;4944;52.514;13.192;2023-07-30T12:02:28;7.10;;;3.70;;
9809;SDS011;4944;52.514;13.192;2023-07-30T12:04:56;2.60;;;2.15;;
9809;SDS011;4944;52.514;13.192;2023-07-30T12:07:24;3.85;;;1.80;;
9809;SDS011;4944;52.514;13.192;2023-07-30T12:09:51;2.83;;;2.25;;
9809;SDS011;4944;52.514;13.192;2023-07-30T12:12:18;2.00;;;1.90;;
9809;SDS011;4944;52.514;13.192;2023-07-30T12:14:52;2.92;;;2.10;;
9809;SDS011;4944;52.514;13.192;2023-07-30T12:17:20;5.40;;;2.47;;
9809;SDS011;4944;52.514;13.192;2023-07-30T12:19:48;2.53;;;2.20;;
9809;SDS011;4944;52.514;13.192;2023-07-30T12:22:16;3.25;;;2.45;;
9809;SDS011;4944;52.514;13.192;2023-07-30T12:24:43;3.47;;;2.58;;
9809;SDS011;4944;52.514;13.192;2023-07-30T12:27:10;4.07;;;2.83;;
9809;SDS011;4944;52.514;13.192;2023-07-30T12:29:37;3.72;;;2.60;;
9809;SDS011;4944;52.514;13.192;2023-07-30T12:32:04;2.58;;;2.10;;
9809;SDS011;4944;52.514;13.192;2023-07-30T12:34:31;3.50;;;2.10;;
9809;SDS011;4944;52.514;13.192;2023-07-30T12:36:58;4.95;;;2.33;;
9809;SDS011;4944;52.514;13.192;2023-07-30T12:39:26;3.67;;;2.30;;
9809;SDS011;4944;52.514;13.192;2023-07-30T12:41:53;2.90;;;2.55;;
9809;SDS011;4944;52.514;13.192;2023-07-30T12:44:20;3.60;;;2.20;;
9809;SDS011;4944;52.514;13.192;2023-07-30T12:46:47;3.53;;;2.47;;
9809;SDS011;4944;52.514;13.192;2023-07-30T12:49:14;3.88;;;2.00;;
9809;SDS011;4944;52.514;13.192;2023-07-30T12:51:41;3.10;;;2.05;;
9809;SDS011;4944;52.514;13.192;2023-07-30T12:54:08;3.42;;;2.55;;
9809;SDS011;4944;52.514;13.192;2023-07-30T12:56:36;2.10;;;2.00;;
9809;SDS011;4944;52.514;13.192;2023-07-30T12:59:03;5.72;;;2.08;;
9809;SDS011;4944;52.514;13.192;2023-07-30T13:01:30;2.45;;;2.15;;
9809;SDS011;4944;52.514;13.192;2023-07-30T13:03:57;2.53;;;2.20;;
9809;SDS011;4944;52.514;13.192;2023-07-30T13:06:24;2.85;;;2.50;;
9809;SDS011;4944;52.514;13.192;2023-07-30T13:08:51;2.65;;;2.45;;
9809;SDS011;4944;52.514;13.192;2023-07-30T13:11:18;2.70;;;2.20;;
9809;SDS011;4944;52.514;13.192;2023-07-30T13:13:46;3.30;;;2.30;;
9809;SDS011;4944;52.514;13.192;2023-07-30T13:16:13;3.75;;;2.70;;
9809;SDS011;4944;52.514;13.192;2023-07-30T13:18:40;2.20;;;2.00;;
9809;SDS011;4944;52.514;13.192;2023-07-30T13:21:07;3.13;;;2.30;;
9809;SDS011;4944;52.514;13.192;2023-07-30T13:23:34;2.83;;;2.10;;
9809;SDS011;4944;52.514;13.192;2023-07-30T13:26:01;2.67;;;1.63;;
9809;SDS011;4944;52.514;13.192;2023-07-30T13:28:28;2.17;;;1.80;;
9809;SDS011;4944;52.514;13.192;2023-07-30T13:30:57;3.08;;;1.80;;
9809;SDS011;4944;52.514;13.192;2023-07-30T13:33:24;2.13;;;1.83;;
9809;SDS011;4944;52.514;13.192;2023-07-30T13:35:51;1.83;;;1.73;;
9809;SDS011;4944;52.514;13.192;2023-07-30T13:38:18;2.00;;;1.88;;
9809;SDS011;4944;52.514;13.192;2023-07-30T13:40:46;2.63;;;1.80;;
9809;SDS011;4944;52.514;13.192;2023-07-30T13:43:13;2.55;;;1.88;;
9809;SDS011;4944;52.514;13.192;2023-07-30T13:45:40;1.88;;;1.60;;
9809;SDS011;4944;52.514;13.192;2023-07-30T13:48:08;4.07;;;1.88;;
9809;SDS011;4944;52.514;13.192;2023-07-30T13:50:35;2.83;;;2.08;;
9809;SDS011;4944;52.514;13.192;2023-07-30T13:53:02;2.03;;;1.60;;
9809;SDS011;4944;52.514;13.192;2023-07-30T13:55:29;4.00;;;1.52;;
9809;SDS011;4944;52.514;13.192;2023-07-30T13:57:56;1.83;;;1.40;;
9809;SDS011;4944;52.514;13.192;2023-07-30T14:00:23;2.13;;;1.20;;
9809;SDS011;4944;52.514;13.192;2023-07-30T14:02:50;4.10;;;3.72;;
9809;SDS011;4944;52.514;13.192;2023-07-30T14:05:18;3.08;;;2.88;;
9809;SDS011;4944;52.514;13.192;2023-07-30T14:07:45;1.50;;;1.40;;
9809;SDS011;4944;52.514;13.192;2023-07-30T14:10:12;2.33;;;2.03;;
9809;SDS011;4944;52.514;13.192;2023-07-30T14:12:40;1.95;;;1.55;;
9809;SDS011;4944;52.514;13.192;2023-07-30T14:15:07;3.30;;;1.50;;
9809;SDS011;4944;52.514;13.192;2023-07-30T14:17:35;1.47;;;1.37;;
9809;SDS011;4944;52.514;13.192;2023-07-30T14:20:02;2.97;;;1.70;;
9809;SDS011;4944;52.514;13.192;2023-07-30T14:22:30;1.67;;;1.43;;
9809;SDS011;4944;52.514;13.192;2023-07-30T14:24:57;1.70;;;1.40;;
9809;SDS011;4944;52.514;13.192;2023-07-30T14:27:24;1.70;;;1.57;;
9809;SDS011;4944;52.514;13.192;2023-07-30T14:29:51;2.13;;;1.20;;
9809;SDS011;4944;52.514;13.192;2023-07-30T14:32:19;2.20;;;1.20;;
9809;SDS011;4944;52.514;13.192;2023-07-30T14:34:46;3.27;;;1.67;;
9809;SDS011;4944;52.514;13.192;2023-07-30T14:37:13;4.53;;;2.20;;
9809;SDS011;4944;52.514;13.192;2023-07-30T14:39:41;3.00;;;1.70;;
9809;SDS011;4944;52.514;13.192;2023-07-30T14:42:09;2.07;;;1.63;;
9809;SDS011;4944;52.514;13.192;2023-07-30T14:44:36;3.93;;;2.20;;
9809;SDS011;4944;52.514;13.192;2023-07-30T14:47:03;3.13;;;1.70;;
9809;SDS011;4944;52.514;13.192;2023-07-30T14:49:33;4.47;;;1.77;;
9809;SDS011;4944;52.514;13.192;2023-07-30T14:52:00;1.93;;;1.70;;
9809;SDS011;4944;52.514;13.192;2023-07-30T14:54:27;2.70;;;1.90;;
9809;SDS011;4944;52.514;13.192;2023-07-30T14:56:55;2.70;;;2.10;;
9809;SDS011;4944;52.514;13.192;2023-07-30T14:59:22;3.10;;;2.50;;
9809;SDS011;4944;52.514;13.192;2023-07-30T15:01:50;1.90;;;1.80;;